< < Back
Terminal Aerodrome Forecast


Current Version              Previous Versions:   1  2  3  4  5  6  7  8  9  

Terminal Aerodrome Forecast

305
FTUS44 KMRX 042336
TAFTYS
TAF
KTYS 042336Z 0500/0524 26006KT P6SM FEW050 SCT250
     FM050100 VRB03KT P6SM SCT050 BKN250
     FM051400 00000KT P6SM SCT100 BKN250
     FM051800 29006KT P6SM SCT050 BKN250
     FM052100 35006KT P6SM VCTS SCT050CB BKN100=

Latest METAR

241
SAUS80 KWBC 050200 RRB
MTRTYS
METAR KTYS 050153Z 03007KT 10SM FEW050 BKN250 28/22 A3003 RMK AO2 SLP157
T02780217


USA.gov is the U.S. government's official web portal to all federal, state and local government web resources and services.